Time;durP1;ratioP1;P1;durP2;ratioP2;P2;SDS_P1;SDS_P2;PMS_P1;PMS_P2;Temp;Humidity;BMP_temperature;BMP_pressure;BME280_temperature;BME280_humidity;BME280_pressure;Samples;Min_cycle;Max_cycle;Signal;HPM_P1;HPM_P2
2022/06/27 00:02:10;;;;;;;1999.90;999.90;;;19.20;99.90;;;;;;5075356;28;20897;-70
2022/06/27 00:04:37;;;;;;;1999.90;999.90;;;19.30;99.90;;;;;;5075288;28;20571;-70
2022/06/27 00:07:04;;;;;;;1999.90;999.90;;;19.40;99.90;;;;;;5066341;28;20945;-70
2022/06/27 00:09:31;;;;;;;1999.90;999.90;;;19.30;99.90;;;;;;5074919;28;20925;-70
2022/06/27 00:11:59;;;;;;;1999.90;999.90;;;19.30;99.90;;;;;;5074022;28;20473;-68
2022/06/27 00:14:26;;;;;;;1999.90;999.90;;;19.30;99.90;;;;;;5072188;28;20458;-70
2022/06/27 00:16:52;;;;;;;1999.90;999.90;;;19.30;99.90;;;;;;5072613;28;20539;-69
2022/06/27 00:19:19;;;;;;;1999.90;999.90;;;19.30;99.90;;;;;;5074037;28;20457;-69
2022/06/27 00:21:46;;;;;;;1999.90;999.90;;;19.30;99.90;;;;;;5072445;28;20484;-69
2022/06/27 00:24:13;;;;;;;1999.90;999.90;;;19.30;99.90;;;;;;5073453;28;20453;-69
2022/06/27 00:26:40;;;;;;;1999.90;999.90;;;19.30;99.90;;;;;;5072660;28;20515;-70
2022/06/27 00:29:08;;;;;;;1999.90;999.90;;;19.30;99.90;;;;;;5073853;28;20809;-70
2022/06/27 00:31:34;;;;;;;1999.90;999.90;;;19.20;99.90;;;;;;5073239;28;20477;-70
2022/06/27 00:34:01;;;;;;;1999.90;999.90;;;19.10;99.90;;;;;;5073616;28;20453;-69
2022/06/27 00:36:28;;;;;;;1999.90;999.90;;;19.10;99.90;;;;;;5070136;28;21428;-70
2022/06/27 00:38:54;;;;;;;1999.90;999.90;;;19.20;99.90;;;;;;5073031;28;20484;-69
2022/06/27 00:41:21;;;;;;;1999.90;999.90;;;19.20;99.90;;;;;;5072527;28;20531;-70
2022/06/27 00:43:48;;;;;;;1999.90;999.90;;;19.40;99.90;;;;;;5065795;28;20604;-70
2022/06/27 00:46:16;;;;;;;1999.90;999.90;;;19.30;99.90;;;;;;5073866;28;20457;-68
2022/06/27 00:48:42;;;;;;;1999.90;999.90;;;19.20;99.90;;;;;;5074746;28;20849;-69
2022/06/27 00:51:11;;;;;;;1999.90;999.90;;;19.20;99.90;;;;;;5074603;28;20438;-70
2022/06/27 00:53:38;;;;;;;1999.90;999.90;;;19.20;99.90;;;;;;5073547;28;20445;-70
2022/06/27 00:56:06;;;;;;;1999.90;999.90;;;19.20;99.90;;;;;;5073732;28;20470;-70
2022/06/27 00:58:33;;;;;;;1999.90;999.90;;;19.10;99.90;;;;;;5074390;28;20441;-70
2022/06/27 01:00:59;;;;;;;1999.90;999.90;;;19.10;99.90;;;;;;5074028;28;20446;-69
2022/06/27 01:03:27;;;;;;;1999.90;999.90;;;19.20;99.90;;;;;;5070460;28;20477;-70
2022/06/27 01:05:54;;;;;;;1999.90;999.90;;;19.30;99.90;;;;;;5067116;28;20446;-69
2022/06/27 01:08:25;;;;;;;1999.90;999.90;;;19.10;99.90;;;;;;5074122;28;20933;-70
2022/06/27 01:10:53;;;;;;;1999.90;999.90;;;19.10;99.90;;;;;;5074793;28;20453;-70
2022/06/27 01:13:20;;;;;;;1999.90;999.90;;;19.00;99.90;;;;;;5071144;28;20473;-71
2022/06/27 01:15:48;;;;;;;1999.90;999.90;;;19.00;99.90;;;;;;5071665;28;20457;-70
2022/06/27 01:18:15;;;;;;;1999.90;999.90;;;19.00;99.90;;;;;;5069475;28;20466;-71
2022/06/27 01:20:45;;;;;;;1999.90;999.90;;;18.80;99.90;;;;;;5069959;28;20566;-69
2022/06/27 01:23:14;;;;;;;1999.90;999.90;;;18.80;99.90;;;;;;5093413;22;20501;-69
2022/06/27 01:25:41;;;;;;;1999.90;999.90;;;18.60;99.90;;;;;;5055316;28;20449;-68
2022/06/27 01:28:09;;;;;;;1999.90;999.90;;;18.50;99.90;;;;;;5069929;28;20461;-69
2022/06/27 01:30:35;;;;;;;1999.90;999.90;;;18.60;99.90;;;;;;5068538;28;20465;-68
2022/06/27 01:33:02;;;;;;;1999.90;999.90;;;18.70;99.90;;;;;;5065536;28;20473;-68
2022/06/27 01:35:29;;;;;;;1999.90;999.90;;;18.80;99.90;;;;;;5070267;28;20936;-68
2022/06/27 01:37:55;;;;;;;1999.90;999.90;;;18.80;99.90;;;;;;5070562;28;20514;-68
2022/06/27 01:40:24;;;;;;;1999.90;999.90;;;18.80;99.90;;;;;;5070532;28;20461;-68
2022/06/27 01:42:50;;;;;;;1999.90;999.90;;;18.80;99.90;;;;;;5071170;28;20477;-68
2022/06/27 01:45:17;;;;;;;1999.90;999.90;;;18.60;99.90;;;;;;5070318;28;20457;-65
2022/06/27 01:47:44;;;;;;;1999.90;999.90;;;18.70;99.90;;;;;;5069402;28;20458;-68
2022/06/27 01:50:13;;;;;;;1999.90;999.90;;;18.60;99.90;;;;;;5070674;28;20526;-69
2022/06/27 01:52:42;;;;;;;1999.90;999.90;;;18.60;99.90;;;;;;5064121;28;20865;-69
2022/06/27 01:55:10;;;;;;;1999.90;999.90;;;18.60;99.90;;;;;;5070020;28;20460;-68
2022/06/27 01:57:38;;;;;;;1999.90;999.90;;;18.60;99.90;;;;;;5071613;28;20495;-70
2022/06/27 02:00:06;;;;;;;1999.90;999.90;;;18.60;99.90;;;;;;5070878;28;20450;-68
2022/06/27 02:02:34;;;;;;;1999.90;999.90;;;18.60;99.90;;;;;;5070288;28;20960;-68
2022/06/27 02:05:01;;;;;;;1999.90;999.90;;;18.60;99.90;;;;;;5069473;28;20453;-66
2022/06/27 02:07:28;;;;;;;1999.90;999.90;;;18.70;99.90;;;;;;5071105;28;20453;-68
2022/06/27 02:09:55;;;;;;;1999.90;999.90;;;18.80;99.90;;;;;;5070486;28;20461;-68
2022/06/27 02:12:23;;;;;;;1999.90;999.90;;;18.80;99.90;;;;;;5068670;28;20473;-70
2022/06/27 02:14:52;;;;;;;1999.90;999.90;;;18.80;99.90;;;;;;5068766;28;21154;-66
2022/06/27 02:17:19;;;;;;;1999.90;999.90;;;18.70;99.90;;;;;;5070572;28;20514;-68
2022/06/27 02:19:46;;;;;;;1999.90;999.90;;;18.70;99.90;;;;;;5069382;28;20457;-68
2022/06/27 02:22:14;;;;;;;1999.90;999.90;;;18.80;99.90;;;;;;5071065;28;20437;-68
2022/06/27 02:24:41;;;;;;;1999.90;999.90;;;18.70;99.90;;;;;;5069523;28;20457;-70
2022/06/27 02:27:09;;;;;;;1999.90;999.90;;;18.80;99.90;;;;;;5065649;28;20461;-68
2022/06/27 02:29:36;;;;;;;1999.90;999.90;;;18.90;99.90;;;;;;5070695;28;20879;-68
2022/06/27 02:32:06;;;;;;;1999.90;999.90;;;18.80;99.90;;;;;;5070659;28;20515;-69
2022/06/27 02:34:34;;;;;;;1999.90;999.90;;;18.70;99.90;;;;;;5068863;28;20461;-67
2022/06/27 02:37:01;;;;;;;1999.90;999.90;;;18.80;99.90;;;;;;5070901;28;20472;-70
2022/06/27 02:39:31;;;;;;;1999.90;999.90;;;18.80;99.90;;;;;;5073998;28;20457;-68
2022/06/27 02:42:00;;;;;;;1999.90;999.90;;;18.90;99.90;;;;;;5072021;28;20464;-69
2022/06/27 02:44:27;;;;;;;1999.90;999.90;;;19.10;99.90;;;;;;5066843;28;20979;-68
2022/06/27 02:46:54;;;;;;;1999.90;999.90;;;19.30;99.90;;;;;;5074283;28;20464;-66
2022/06/27 02:49:22;;;;;;;1999.90;999.90;;;19.40;99.90;;;;;;5060826;28;20442;-68
2022/06/27 02:51:55;;;;;;;1999.90;999.90;;;19.50;99.90;;;;;;5055262;28;20855;-67
2022/06/27 02:54:25;;;;;;;1999.90;999.90;;;19.50;99.90;;;;;;5054797;28;20941;-69
2022/06/27 02:56:55;;;;;;;1999.90;999.90;;;19.50;99.90;;;;;;5072331;28;20860;-67
2022/06/27 02:59:24;;;;;;;1999.90;999.90;;;19.50;99.90;;;;;;5074724;28;20467;-67
2022/06/27 03:01:52;;;;;;;1999.90;999.90;;;19.50;99.90;;;;;;5074966;28;20880;-71
2022/06/27 03:04:19;;;;;;;1999.90;999.90;;;19.50;99.90;;;;;;5074650;28;20554;-67
2022/06/27 03:06:49;;;;;;;1999.90;999.90;;;19.50;99.90;;;;;;5072216;28;20494;-70
2022/06/27 03:09:16;;;;;;;1999.90;999.90;;;19.50;99.90;;;;;;5074729;28;20445;-68
2022/06/27 03:11:43;;;;;;;1999.90;999.90;;;19.50;99.90;;;;;;5074389;28;20796;-67
2022/06/27 03:14:10;;;;;;;1999.90;999.90;;;19.50;99.90;;;;;;5072204;28;20538;-67
2022/06/27 03:16:37;;;;;;;1999.90;999.90;;;19.50;99.90;;;;;;5071792;28;20457;-70
2022/06/27 03:19:04;;;;;;;1999.90;999.90;;;19.60;99.90;;;;;;5070603;28;20457;-68
2022/06/27 03:21:31;;;;;;;1999.90;999.90;;;19.70;99.90;;;;;;5073536;28;20826;-69
2022/06/27 03:24:00;;;;;;;1999.90;999.90;;;19.80;99.90;;;;;;5070565;28;20484;-69
2022/06/27 03:26:27;;;;;;;1999.90;999.90;;;19.80;99.90;;;;;;5071358;28;20526;-68
2022/06/27 03:28:53;;;;;;;1999.90;999.90;;;19.80;99.90;;;;;;5069243;28;20881;-69
2022/06/27 03:31:20;;;;;;;1999.90;999.90;;;19.80;99.90;;;;;;5072964;28;20465;-69
2022/06/27 03:33:47;;;;;;;1999.90;999.90;;;20.00;99.90;;;;;;5072578;28;20526;-68
2022/06/27 03:36:13;;;;;;;1999.90;999.90;;;19.90;99.90;;;;;;5072851;28;20469;-69
2022/06/27 03:38:40;;;;;;;1999.90;999.90;;;19.90;99.90;;;;;;5071960;28;20461;-68
2022/06/27 03:41:08;;;;;;;1999.90;999.90;;;20.00;99.90;;;;;;5073242;28;20461;-68
2022/06/27 03:43:34;;;;;;;1999.90;999.90;;;20.10;99.90;;;;;;5069123;28;20968;-70
2022/06/27 03:46:01;;;;;;;1999.90;999.90;;;20.00;99.90;;;;;;5071994;28;20495;-68
2022/06/27 03:51:12;;;;;;;1999.90;999.90;;;20.00;99.90;;;;;;5073370;28;20445;-70
2022/06/27 03:53:39;;;;;;;1999.90;999.90;;;20.10;99.90;;;;;;5067394;28;21202;-68
2022/06/27 03:56:06;;;;;;;1999.90;999.90;;;20.10;99.90;;;;;;5071660;28;20465;-68
2022/06/27 03:58:34;;;;;;;1999.90;999.90;;;20.20;99.90;;;;;;5073254;28;20469;-68
2022/06/27 04:01:03;;;;;;;1999.90;999.90;;;20.20;99.90;;;;;;5072896;28;20453;-69
2022/06/27 04:03:30;;;;;;;1999.90;999.90;;;20.20;99.90;;;;;;5071951;28;20519;-69
2022/06/27 04:05:56;;;;;;;1999.90;999.90;;;20.20;99.90;;;;;;5071468;28;20460;-69
2022/06/27 04:08:23;;;;;;;1999.90;999.90;;;20.30;99.90;;;;;;5072078;28;20795;-68
2022/06/27 04:10:50;;;;;;;1999.90;999.90;;;20.40;99.90;;;;;;5072988;28;20461;-69
2022/06/27 04:13:16;;;;;;;1999.90;999.90;;;20.50;99.90;;;;;;5069889;28;20538;-71
2022/06/27 04:15:44;;;;;;;1999.90;999.90;;;20.50;99.90;;;;;;5071928;28;20457;-69
2022/06/27 04:18:11;;;;;;;1999.90;999.90;;;20.40;99.90;;;;;;5071853;28;20453;-68
2022/06/27 04:20:37;;;;;;;1999.90;999.90;;;20.50;99.90;;;;;;5067168;28;20453;-68
2022/06/27 04:23:04;;;;;;;1999.90;999.90;;;20.70;99.90;;;;;;5072284;28;20546;-68
2022/06/27 04:25:31;;;;;;;1999.90;999.90;;;20.70;99.90;;;;;;5066730;28;21030;-68
2022/06/27 04:27:58;;;;;;;1999.90;999.90;;;21.00;99.90;;;;;;5071809;28;20515;-68
2022/06/27 04:30:25;;;;;;;1999.90;999.90;;;21.10;99.90;;;;;;5072775;28;20461;-68
2022/06/27 04:32:53;;;;;;;1999.90;999.90;;;21.10;99.90;;;;;;5070761;28;20481;-68
2022/06/27 04:35:20;;;;;;;1999.90;999.90;;;21.40;99.90;;;;;;5065346;28;20497;-68
2022/06/27 04:37:47;;;;;;;1999.90;999.90;;;21.70;99.90;;;;;;5067013;28;20453;-69
2022/06/27 04:40:14;;;;;;;1999.90;999.90;;;21.80;99.90;;;;;;5069688;28;20485;-72
2022/06/27 04:42:42;;;;;;;1999.90;999.90;;;21.70;99.90;;;;;;5073105;28;20457;-65
2022/06/27 04:45:12;;;;;;;1999.90;999.90;;;21.50;99.90;;;;;;5056795;28;20938;-69
2022/06/27 04:47:40;;;;;;;1999.90;999.90;;;21.20;99.90;;;;;;5067691;28;21101;-69
2022/06/27 04:50:09;;;;;;;1999.90;999.90;;;21.00;99.90;;;;;;5072940;28;20449;-71
2022/06/27 04:52:36;;;;;;;1999.90;999.90;;;20.90;99.90;;;;;;5071669;28;20473;-69
2022/06/27 04:55:07;;;;;;;1999.90;999.90;;;20.80;99.90;;;;;;5066355;28;20496;-67
2022/06/27 04:57:33;;;;;;;1999.90;999.90;;;20.80;99.90;;;;;;5063518;28;20496;-67
2022/06/27 05:00:00;;;;;;;1999.90;999.90;;;20.80;99.90;;;;;;5072127;28;20926;-68
2022/06/27 05:02:26;;;;;;;1999.90;999.90;;;20.90;99.90;;;;;;5068692;28;20545;-68
2022/06/27 05:04:53;;;;;;;1999.90;999.90;;;21.00;99.90;;;;;;5070070;28;20639;-68
2022/06/27 05:07:22;;;;;;;1999.90;999.90;;;21.00;99.90;;;;;;5071028;28;20469;-66
2022/06/27 05:09:48;;;;;;;1999.90;999.90;;;21.10;99.90;;;;;;5071576;28;20935;-67
2022/06/27 05:12:15;;;;;;;1999.90;999.90;;;21.20;99.90;;;;;;5071326;28;20472;-71
2022/06/27 05:14:41;;;;;;;1999.90;999.90;;;21.30;99.90;;;;;;5063828;28;20511;-69
2022/06/27 05:17:08;;;;;;;1999.90;999.90;;;21.30;99.90;;;;;;5071860;28;20437;-66
2022/06/27 05:19:35;;;;;;;1999.90;999.90;;;21.20;99.90;;;;;;5068676;28;20464;-69
2022/06/27 05:22:01;;;;;;;1999.90;999.90;;;21.20;99.90;;;;;;5070964;28;20469;-70
2022/06/27 05:24:29;;;;;;;1999.90;999.90;;;21.30;99.90;;;;;;5067068;28;20481;-69
2022/06/27 05:26:56;;;;;;;1999.90;999.90;;;21.50;99.90;;;;;;5062574;28;20449;-68
2022/06/27 05:29:23;;;;;;;1999.90;999.90;;;21.40;99.90;;;;;;5069983;28;20461;-69
2022/06/27 05:31:49;;;;;;;1999.90;999.90;;;21.50;99.90;;;;;;5070428;28;20442;-69
2022/06/27 05:34:16;;;;;;;1999.90;999.90;;;21.50;99.90;;;;;;5069869;28;20480;-70
2022/06/27 05:36:43;;;;;;;1999.90;999.90;;;21.70;99.90;;;;;;5070820;28;20499;-69
2022/06/27 05:39:10;;;;;;;1999.90;999.90;;;21.70;99.90;;;;;;5069732;28;21017;-69
2022/06/27 05:41:39;;;;;;;1999.90;999.90;;;22.00;99.90;;;;;;5072157;28;20445;-69
2022/06/27 05:44:06;;;;;;;1999.90;999.90;;;21.90;99.90;;;;;;5070392;28;20535;-67
2022/06/27 05:46:33;;;;;;;1999.90;999.90;;;21.90;99.90;;;;;;5071863;28;20449;-69
2022/06/27 05:49:01;;;;;;;1999.90;999.90;;;21.80;99.90;;;;;;5068921;28;20465;-70
2022/06/27 05:51:29;;;;;;;1999.90;999.90;;;21.80;99.90;;;;;;5071826;28;20519;-69
2022/06/27 05:53:57;;;;;;;1999.90;999.90;;;21.80;99.90;;;;;;5070758;28;20508;-69
2022/06/27 05:56:24;;;;;;;1999.90;999.90;;;21.80;99.90;;;;;;5071793;28;20528;-68
2022/06/27 05:58:53;;;;;;;1999.90;999.90;;;21.80;99.90;;;;;;5069884;28;20461;-69
2022/06/27 06:01:20;;;;;;;1999.90;999.90;;;21.80;99.90;;;;;;5071766;28;20473;-67
2022/06/27 06:03:46;;;;;;;1999.90;999.90;;;21.70;99.90;;;;;;5070344;28;21011;-71
2022/06/27 06:06:13;;;;;;;1999.90;999.90;;;21.70;99.90;;;;;;5070641;28;20473;-69
2022/06/27 06:08:41;;;;;;;1999.90;999.90;;;21.70;99.90;;;;;;5070547;28;20973;-69
2022/06/27 06:11:07;;;;;;;1999.90;999.90;;;21.70;99.90;;;;;;5071076;28;20925;-69
2022/06/27 06:13:34;;;;;;;1999.90;999.90;;;21.70;99.90;;;;;;5077610;28;20460;-69
2022/06/27 06:16:03;;;;;;;1999.90;999.90;;;21.60;99.90;;;;;;5076711;28;20518;-69
2022/06/27 06:18:33;;;;;;;1999.90;999.90;;;21.50;99.90;;;;;;5076430;28;21035;-68
2022/06/27 06:20:59;;;;;;;1999.90;999.90;;;21.50;99.90;;;;;;5078260;28;20453;-69
2022/06/27 06:23:27;;;;;;;1999.90;999.90;;;21.50;99.90;;;;;;5077135;28;20895;-68
2022/06/27 06:25:54;;;;;;;1999.90;999.90;;;21.50;99.90;;;;;;5077638;28;20521;-68
2022/06/27 06:28:21;;;;;;;1999.90;999.90;;;21.40;99.90;;;;;;5076334;28;20683;-69
2022/06/27 06:30:48;;;;;;;1999.90;999.90;;;21.60;99.90;;;;;;5078083;28;20449;-69
2022/06/27 06:33:16;;;;;;;1999.90;999.90;;;21.60;99.90;;;;;;5077196;28;20484;-67
2022/06/27 06:35:43;;;;;;;1999.90;999.90;;;21.60;99.90;;;;;;5077857;28;20444;-67
2022/06/27 06:38:10;;;;;;;1999.90;999.90;;;21.60;99.90;;;;;;5075771;28;20844;-66
2022/06/27 06:40:37;;;;;;;1999.90;999.90;;;21.50;99.90;;;;;;5069499;28;20449;-67
2022/06/27 06:43:04;;;;;;;1999.90;999.90;;;21.50;99.90;;;;;;5074444;28;21062;-69
2022/06/27 06:45:31;;;;;;;1999.90;999.90;;;21.70;99.90;;;;;;5077755;28;20512;-66
2022/06/27 06:47:58;;;;;;;1999.90;999.90;;;21.70;99.90;;;;;;5076207;28;20949;-67
2022/06/27 06:50:26;;;;;;;1999.90;999.90;;;21.90;99.90;;;;;;5077954;28;20445;-67
2022/06/27 06:52:53;;;;;;;1999.90;999.90;;;21.80;99.90;;;;;;5076909;28;21065;-67
2022/06/27 06:55:21;;;;;;;1999.90;999.90;;;21.80;99.90;;;;;;5077351;28;20445;-69
2022/06/27 06:57:48;;;;;;;1999.90;999.90;;;21.70;99.90;;;;;;5075693;28;20499;-67
2022/06/27 07:00:16;;;;;;;1999.90;999.90;;;21.90;99.90;;;;;;5076880;28;20462;-69
2022/06/27 07:02:43;;;;;;;1999.90;999.90;;;22.00;99.90;;;;;;5077587;28;20518;-69
2022/06/27 07:05:11;;;;;;;1999.90;999.90;;;21.90;99.90;;;;;;5075456;28;20499;-66
2022/06/27 07:07:40;;;;;;;1999.90;999.90;;;21.80;99.90;;;;;;5068853;28;20960;-66
2022/06/27 07:10:09;;;;;;;1999.90;999.90;;;21.80;99.90;;;;;;5076093;28;20488;-67
2022/06/27 07:12:36;;;;;;;1999.90;999.90;;;21.90;99.90;;;;;;5077610;28;20514;-67
2022/06/27 07:15:05;;;;;;;1999.90;999.90;;;21.80;99.90;;;;;;5076453;28;20523;-68
2022/06/27 07:17:40;;;;;;;1999.90;999.90;;;22.00;99.90;;;;;;5076285;28;20995;-70
2022/06/27 07:20:08;;;;;;;1999.90;999.90;;;21.90;99.90;;;;;;5076546;28;20456;-67
2022/06/27 07:25:05;;;;;;;1999.90;999.90;;;22.20;99.90;;;;;;5068570;22;21447;-71
2022/06/27 07:27:33;;;;;;;1999.90;999.90;;;22.40;99.90;;;;;;5049818;28;20823;-72
2022/06/27 07:29:59;;;;;;;1999.90;999.90;;;22.60;99.90;;;;;;5051441;28;20492;-72
2022/06/27 07:32:27;;;;;;;1999.90;999.90;;;22.60;99.90;;;;;;5054179;28;20446;-72
2022/06/27 07:34:54;;;;;;;1999.90;999.90;;;22.60;99.90;;;;;;5048452;28;20571;-70
2022/06/27 07:37:21;;;;;;;1999.90;999.90;;;22.50;99.90;;;;;;5034854;28;21114;-70
2022/06/27 07:39:49;;;;;;;1999.90;999.90;;;22.40;99.90;;;;;;5038283;28;20951;-70
2022/06/27 07:42:17;;;;;;;1999.90;999.90;;;22.50;99.90;;;;;;5031854;28;20471;-69
2022/06/27 07:44:44;;;;;;;1999.90;999.90;;;22.70;99.90;;;;;;5030089;28;20486;-69
2022/06/27 07:47:11;;;;;;;1999.90;999.90;;;22.80;99.90;;;;;;5032158;28;20514;-72
2022/06/27 07:49:37;;;;;;;1999.90;999.90;;;22.60;99.90;;;;;;5029801;28;20462;-69
2022/06/27 07:52:04;;;;;;;1999.90;999.90;;;22.30;99.90;;;;;;5040227;28;20958;-69
2022/06/27 07:54:31;;;;;;;1999.90;999.90;;;22.40;99.90;;;;;;5042621;28;20459;-69
2022/06/27 07:56:58;;;;;;;1999.90;999.90;;;22.60;99.90;;;;;;5026668;28;20463;-70
2022/06/27 07:59:26;;;;;;;1999.90;999.90;;;22.60;99.90;;;;;;5031886;28;20479;-69
2022/06/27 08:01:53;;;;;;;1999.90;999.90;;;22.70;99.90;;;;;;5040578;28;20462;-72
2022/06/27 08:04:19;;;;;;;1999.90;999.90;;;22.90;99.90;;;;;;5036815;28;20537;-71
2022/06/27 08:06:49;;;;;;;1999.90;999.90;;;23.20;99.90;;;;;;5036675;28;20509;-72
2022/06/27 08:09:16;;;;;;;1999.90;999.90;;;23.50;99.90;;;;;;5033796;28;20454;-72
2022/06/27 08:11:44;;;;;;;1999.90;999.90;;;23.80;99.90;;;;;;5033767;28;20962;-72
2022/06/27 08:14:12;;;;;;;1999.90;999.90;;;24.20;99.90;;;;;;5033397;28;20828;-72
2022/06/27 08:16:41;;;;;;;1999.90;999.90;;;24.30;99.90;;;;;;5030946;28;21013;-71
2022/06/27 08:19:10;;;;;;;1999.90;999.90;;;24.50;99.90;;;;;;5033573;28;20439;-71
2022/06/27 08:21:39;;;;;;;1999.90;999.90;;;24.40;99.90;;;;;;5033708;28;20443;-72
2022/06/27 08:24:07;;;;;;;1999.90;999.90;;;24.40;99.90;;;;;;5033199;28;20483;-72
2022/06/27 08:26:35;;;;;;;1999.90;999.90;;;24.70;99.90;;;;;;5032859;28;20547;-72
2022/06/27 08:29:03;;;;;;;1999.90;999.90;;;25.10;99.90;;;;;;5028492;28;20460;-72
2022/06/27 08:31:30;;;;;;;1999.90;999.90;;;25.00;99.90;;;;;;5036624;28;21005;-72
2022/06/27 08:34:01;;;;;;;1999.90;999.90;;;25.30;99.90;;;;;;5030294;28;20487;-72
2022/06/27 08:36:31;;;;;;;1999.90;999.90;;;25.70;99.90;;;;;;5025231;28;20515;-71
2022/06/27 08:38:58;;;;;;;1999.90;999.90;;;25.70;99.90;;;;;;5043335;28;20931;-71
2022/06/27 08:41:26;;;;;;;1999.90;999.90;;;25.90;99.90;;;;;;5034045;28;20467;-71
2022/06/27 08:43:58;;;;;;;1999.90;999.90;;;25.60;99.90;;;;;;5031190;28;20553;-72
2022/06/27 08:46:26;;;;;;;1999.90;999.90;;;25.60;99.90;;;;;;5041178;28;20569;-71
2022/06/27 08:48:53;;;;;;;1999.90;999.90;;;25.50;99.90;;;;;;5029452;28;20502;-72
2022/06/27 08:51:21;;;;;;;1999.90;999.90;;;25.70;99.90;;;;;;5031552;28;20513;-72
2022/06/27 08:53:50;;;;;;;1999.90;999.90;;;25.80;99.90;;;;;;5044269;28;20488;-71
2022/06/27 08:56:18;;;;;;;1999.90;999.90;;;25.70;99.90;;;;;;5044543;28;21429;-72
2022/06/27 08:58:46;;;;;;;1999.90;999.90;;;25.70;99.90;;;;;;5043201;28;20438;-72
2022/06/27 09:01:15;;;;;;;1999.90;999.90;;;25.90;99.90;;;;;;5029157;28;20467;-72
2022/06/27 09:03:58;;;;;;;1999.90;999.90;;;25.90;99.90;;;;;;5032689;28;20473;-71
2022/06/27 09:06:27;;;;;;;1999.90;999.90;;;25.80;99.90;;;;;;5038095;28;21003;-72
2022/06/27 09:08:55;;;;;;;1999.90;999.90;;;25.80;99.90;;;;;;5031343;28;20477;-71
2022/06/27 09:11:27;;;;;;;1999.90;999.90;;;25.90;99.90;;;;;;5028592;28;20458;-72
2022/06/27 09:13:54;;;;;;;1999.90;999.90;;;26.40;99.90;;;;;;5029197;28;21018;-71
2022/06/27 09:16:21;;;;;;;1999.90;999.90;;;26.50;99.90;;;;;;5035263;28;20971;-71
2022/06/27 09:18:48;;;;;;;1999.90;999.90;;;26.40;99.90;;;;;;5040419;28;20451;-72
2022/06/27 09:21:15;;;;;;;1999.90;999.90;;;26.70;99.90;;;;;;5029523;28;20516;-72
2022/06/27 09:23:47;;;;;;;1999.90;999.90;;;26.70;99.90;;;;;;5029970;28;20486;-72
2022/06/27 09:26:16;;;;;;;1999.90;999.90;;;26.70;99.90;;;;;;5032441;28;20477;-72
2022/06/27 09:28:50;;;;;;;1999.90;999.90;;;26.50;99.90;;;;;;5032191;28;20643;-72
2022/06/27 09:31:40;;;;;;;1999.90;999.90;;;26.50;99.90;;;;;;5032571;28;20485;-72
2022/06/27 09:34:09;;;;;;;1999.90;999.90;;;26.30;99.90;;;;;;5031886;28;20471;-72
2022/06/27 09:36:38;;;;;;;1999.90;999.90;;;26.10;99.90;;;;;;5032064;28;20439;-72
2022/06/27 09:39:10;;;;;;;1999.90;999.90;;;26.30;99.90;;;;;;5032010;28;20461;-72
2022/06/27 09:41:40;;;;;;;1999.90;999.90;;;26.00;99.90;;;;;;5029186;28;20952;-72
2022/06/27 09:44:11;;;;;;;1999.90;999.90;;;26.10;99.90;;;;;;5031850;28;20495;-72
2022/06/27 09:46:42;;;;;;;1999.90;999.90;;;26.40;99.90;;;;;;5030768;28;20483;-72
2022/06/27 09:49:14;;;;;;;1999.90;999.90;;;26.70;99.90;;;;;;5048274;28;20446;-72
2022/06/27 09:51:41;;;;;;;1999.90;999.90;;;26.70;99.90;;;;;;5044923;28;20455;-72
2022/06/27 09:54:11;;;;;;;1999.90;999.90;;;26.70;99.90;;;;;;5031874;28;20467;-73
2022/06/27 09:56:41;;;;;;;1999.90;999.90;;;26.90;99.90;;;;;;5032127;28;20447;-72
2022/06/27 09:59:10;;;;;;;1999.90;999.90;;;27.10;99.90;;;;;;5031985;28;20965;-72
2022/06/27 10:01:37;;;;;;;1999.90;999.90;;;27.30;99.90;;;;;;5030781;28;20513;-72
2022/06/27 10:04:05;;;;;;;1999.90;999.90;;;27.40;99.90;;;;;;5030410;28;20486;-72
2022/06/27 10:06:32;;;;;;;1999.90;999.90;;;27.30;99.90;;;;;;5031889;28;20489;-72
2022/06/27 10:09:00;;;;;;;1999.90;999.90;;;27.40;99.90;;;;;;5031605;28;20889;-72
2022/06/27 10:11:28;;;;;;;1999.90;999.90;;;27.10;99.90;;;;;;5024868;28;20460;-72
2022/06/27 10:14:19;;;;;;;1999.90;999.90;;;27.10;99.90;;;;;;5030252;28;20558;-71
2022/06/27 10:16:54;;;;;;;1999.90;999.90;;;27.30;99.90;;;;;;5034691;28;20516;-72
2022/06/27 10:19:21;;;;;;;1999.90;999.90;;;27.20;99.90;;;;;;5032016;28;20970;-71
2022/06/27 10:21:50;;;;;;;1999.90;999.90;;;27.00;99.90;;;;;;5028564;28;20546;-72
2022/06/27 10:24:34;;;;;;;1999.90;999.90;;;26.90;99.90;;;;;;5029114;28;20509;-72
2022/06/27 10:27:07;;;;;;;1999.90;999.90;;;27.10;99.90;;;;;;5039941;28;20478;-72
2022/06/27 10:29:46;;;;;;;1999.90;999.90;;;27.10;99.90;;;;;;5028207;28;20474;-72
2022/06/27 10:32:40;;;;;;;1999.90;999.90;;;27.10;99.90;;;;;;5026873;28;20467;-71
2022/06/27 10:35:09;;;;;;;1999.90;999.90;;;27.20;99.90;;;;;;5027911;28;20853;-72
2022/06/27 10:37:38;;;;;;;1999.90;999.90;;;27.30;99.90;;;;;;5044254;28;20528;-71
2022/06/27 10:40:51;;;;;;;1999.90;999.90;;;27.40;99.90;;;;;;5028668;28;20514;-71
2022/06/27 10:43:40;;;;;;;1999.90;999.90;;;27.40;99.90;;;;;;5038692;28;20488;-71
2022/06/27 10:46:44;;;;;;;1999.90;999.90;;;27.10;99.90;;;;;;5038842;28;20593;-71
2022/06/27 10:49:34;;;;;;;1999.90;999.90;;;26.90;99.90;;;;;;5035376;28;20474;-71
2022/06/27 10:52:26;;;;;;;1999.90;999.90;;;26.80;99.90;;;;;;5027550;28;20505;-71
2022/06/27 10:54:54;;;;;;;1999.90;999.90;;;26.80;99.90;;;;;;5031084;28;21224;-71
2022/06/27 10:57:44;;;;;;;1999.90;999.90;;;26.80;99.90;;;;;;5030663;28;20443;-71
2022/06/27 11:00:27;;;;;;;1999.90;999.90;;;26.70;99.90;;;;;;5031040;28;20983;-71
2022/06/27 11:02:55;;;;;;;1999.90;999.90;;;26.60;99.90;;;;;;5033675;28;20470;-71
2022/06/27 11:05:22;;;;;;;1999.90;999.90;;;26.40;99.90;;;;;;5034957;28;20487;-71
2022/06/27 11:07:53;;;;;;;1999.90;999.90;;;26.40;99.90;;;;;;5034853;28;20993;-71
2022/06/27 11:10:21;;;;;;;1999.90;999.90;;;26.70;99.90;;;;;;5032726;28;20467;-71
2022/06/27 11:12:48;;;;;;;1999.90;999.90;;;26.90;99.90;;;;;;5034883;28;20526;-71
2022/06/27 11:15:16;;;;;;;1999.90;999.90;;;27.10;99.90;;;;;;5034606;28;20447;-71
2022/06/27 11:17:44;;;;;;;1999.90;999.90;;;26.70;99.90;;;;;;5034438;28;20451;-71
2022/06/27 11:20:19;;;;;;;1999.90;999.90;;;26.70;99.90;;;;;;5032758;28;20549;-72
2022/06/27 11:22:49;;;;;;;1999.90;999.90;;;26.80;99.90;;;;;;5015176;28;20493;-72
2022/06/27 11:25:19;;;;;;;1999.90;999.90;;;26.70;99.90;;;;;;5041684;28;20473;-71
2022/06/27 11:27:52;;;;;;;1999.90;999.90;;;26.70;99.90;;;;;;5048920;28;20499;-71
2022/06/27 11:33:25;;;;;;;1999.90;999.90;;;26.40;99.90;;;;;;5034442;28;20512;-71
2022/06/27 11:35:54;;;;;;;1999.90;999.90;;;26.40;99.90;;;;;;5045998;28;20431;-71
2022/06/27 11:38:26;;;;;;;1999.90;999.90;;;26.40;99.90;;;;;;5036933;28;20471;-71
2022/06/27 11:41:04;;;;;;;1999.90;999.90;;;26.50;99.90;;;;;;5034687;28;20497;-71
2022/06/27 11:43:51;;;;;;;1999.90;999.90;;;26.50;99.90;;;;;;5042882;28;20474;-71
2022/06/27 11:46:31;;;;;;;1999.90;999.90;;;26.60;99.90;;;;;;5032821;28;20483;-71
2022/06/27 11:49:00;;;;;;;1999.90;999.90;;;26.60;99.90;;;;;;5035224;28;20467;-71
2022/06/27 11:51:29;;;;;;;1999.90;999.90;;;26.70;99.90;;;;;;5032608;28;20474;-71
2022/06/27 11:53:59;;;;;;;1999.90;999.90;;;26.70;99.90;;;;;;5032560;28;20550;-71
2022/06/27 11:56:29;;;;;;;1999.90;999.90;;;26.80;99.90;;;;;;5051793;28;20503;-71
2022/06/27 11:58:58;;;;;;;1999.90;999.90;;;26.90;99.90;;;;;;5036438;28;20513;-71
2022/06/27 12:01:25;;;;;;;1999.90;999.90;;;26.80;99.90;;;;;;5034066;28;20470;-71
2022/06/27 12:04:16;;;;;;;1999.90;999.90;;;26.80;99.90;;;;;;5033646;28;20463;-71
2022/06/27 12:06:55;;;;;;;1999.90;999.90;;;26.80;99.90;;;;;;5034171;28;20497;-72
2022/06/27 12:09:23;;;;;;;1999.90;999.90;;;27.00;99.90;;;;;;5031204;28;20471;-71
2022/06/27 12:11:59;;;;;;;1999.90;999.90;;;26.90;99.90;;;;;;5033774;28;20462;-71
2022/06/27 12:14:27;;;;;;;1999.90;999.90;;;26.90;99.90;;;;;;5033415;28;20843;-72
2022/06/27 12:16:57;;;;;;;1999.90;999.90;;;26.80;99.90;;;;;;5033256;28;20943;-69